Accueil
METAR-TAF:

METAR-TAF

Aéroports :

Ajaccio, France

Aéroport d'Ajaccio-Napoléon-Bonaparte

latitude: 41-55N, longitude: 008-48E, altitude: 6 m

Observation

Le bulletin a été fait il y a 10 minutes, à 12:00 UTC
Vent 13 kt de sud-ouest
Température 30°C
Humidité 66%
Pression 1009 hPa
Visibilité 10 km ou plus
Nuages épars à une hauteur de 3000 ft

METAR: LFKJ 271200Z 23013KT 9999 SCT030 30/23 Q1009 NOSIG

Heure: 14:10 (12:10 UTC)

Prévision

Le bulletin a été fait il y a 4 heures et 10 minutes, à 08:00 UTC
Prévision valable du 27 à 09 UTC au 28 à 09 UTC
Vent 12 kt de sud-ouest
Visibilité 10 km ou plus
Quelques nuages à une hauteur de 2500 ft
Nuages épars à une hauteur de 3500 ft
Evoluant progressivement
du 27 à 16 UTC au 27 à 18 UTC
Vent 3 kt de direction variable

TAF: LFKJ 270800Z 2709/2809 22012KT 9999 FEW025 SCT035 BECMG 2716/2718 VRB03KT

Observations et prévisions météorologiques de plus de 4000 aéroports (messages METAR et TAF).

Les stations disponibles sont représentées par des disques jaunes et rouges sur la carte.

Passer la souris dessus pour voir le nom de la station.

Cliquer dessus pour voir les observations et prévisions météorologiques.

Pour changer de carte: cliquez sur les boutons verts avec une croix noire pour zoomer, sur le bouton vert avec un tiret pour effectuer un zoom arrière, ou sur les flèches vertes pour les cartes adjacentes.


METAR-TAF: